Time;durP1;ratioP1;P1;durP2;ratioP2;P2;SDS_P1;SDS_P2;PMS_P1;PMS_P2;Temp;Humidity;BMP_temperature;BMP_pressure;BME280_temperature;BME280_humidity;BME280_pressure;Samples;Min_cycle;Max_cycle;Signal;HPM_P1;HPM_P2
2021/11/01 00:01:53;;;;;;;10.05;6.95;;;9.80;99.90;;;;;;1985584;72;21451;-80
2021/11/01 00:04:19;;;;;;;10.50;7.37;;;9.80;99.90;;;;;;1974349;72;21053;-80
2021/11/01 00:06:46;;;;;;;13.00;7.35;;;9.80;99.90;;;;;;1975132;72;21173;-80
2021/11/01 00:09:12;;;;;;;13.72;7.42;;;9.80;99.90;;;;;;1981042;72;21060;-81
2021/11/01 00:11:38;;;;;;;11.80;7.20;;;9.80;99.90;;;;;;1971279;72;21468;-79
2021/11/01 00:14:04;;;;;;;13.65;7.42;;;9.90;99.90;;;;;;1963427;72;21032;-82
2021/11/01 00:16:31;;;;;;;10.28;7.17;;;9.90;99.90;;;;;;1974966;72;21050;-79
2021/11/01 00:18:57;;;;;;;10.50;7.03;;;9.80;99.90;;;;;;1963813;72;21070;-80
2021/11/01 00:21:24;;;;;;;12.60;6.37;;;9.80;99.90;;;;;;1977655;72;21060;-79
2021/11/01 00:23:51;;;;;;;12.93;7.53;;;9.90;99.90;;;;;;1971641;71;21073;-78
2021/11/01 00:26:18;;;;;;;10.50;6.58;;;9.90;99.90;;;;;;1974990;72;21506;-80
2021/11/01 00:28:44;;;;;;;10.28;7.20;;;10.00;99.90;;;;;;1971227;72;21492;-79
2021/11/01 00:31:10;;;;;;;13.18;10.78;;;9.90;99.90;;;;;;1977451;72;21587;-80
2021/11/01 00:33:38;;;;;;;11.22;6.67;;;9.90;99.90;;;;;;1978737;72;21051;-79
2021/11/01 00:36:04;;;;;;;18.48;7.50;;;10.00;99.90;;;;;;1974876;73;21059;-80
2021/11/01 00:38:30;;;;;;;13.53;6.87;;;9.90;99.90;;;;;;1965526;72;21158;-80
2021/11/01 00:40:57;;;;;;;8.35;6.08;;;9.80;99.90;;;;;;1972619;72;21172;-80
2021/11/01 00:43:23;;;;;;;11.65;7.05;;;9.90;99.90;;;;;;1971141;72;21063;-79
2021/11/01 00:45:49;;;;;;;9.55;6.70;;;9.80;99.90;;;;;;1974517;73;21059;-79
2021/11/01 00:48:15;;;;;;;7.12;5.72;;;9.80;99.90;;;;;;1974471;72;21055;-80
2021/11/01 00:50:42;;;;;;;8.30;6.12;;;9.80;99.90;;;;;;1974443;72;21206;-80
2021/11/01 00:53:08;;;;;;;9.63;6.55;;;9.80;99.90;;;;;;1972080;72;21063;-81
2021/11/01 00:55:37;;;;;;;10.63;6.53;;;9.90;99.90;;;;;;1971496;72;21140;-80
2021/11/01 00:58:02;;;;;;;10.35;5.90;;;10.00;99.90;;;;;;1987736;72;21084;-80
2021/11/01 01:00:29;;;;;;;12.23;6.42;;;10.00;99.90;;;;;;1989880;72;21066;-80
2021/11/01 01:02:56;;;;;;;8.38;5.90;;;10.10;99.90;;;;;;1969252;72;21116;-81
2021/11/01 01:05:22;;;;;;;10.90;6.65;;;10.00;99.90;;;;;;1968347;72;21135;-80
2021/11/01 01:07:48;;;;;;;6.33;5.03;;;10.00;99.90;;;;;;1978464;72;21067;-80
2021/11/01 01:10:15;;;;;;;9.75;6.53;;;10.10;99.90;;;;;;1991202;72;21032;-81
2021/11/01 01:12:42;;;;;;;12.07;6.12;;;10.00;99.90;;;;;;1978835;71;21136;-80
2021/11/01 01:15:10;;;;;;;10.20;6.37;;;9.90;99.90;;;;;;1969963;72;21079;-81
2021/11/01 01:17:38;;;;;;;8.88;5.87;;;9.90;99.90;;;;;;1977344;72;21074;-80
2021/11/01 01:20:07;;;;;;;11.78;6.42;;;9.90;99.90;;;;;;1970036;72;21091;-80
2021/11/01 01:22:31;;;;;;;6.47;5.80;;;9.90;99.90;;;;;;1971108;72;21085;-80
2021/11/01 01:25:00;;;;;;;10.20;5.75;;;9.90;99.90;;;;;;1977869;72;21179;-81
2021/11/01 01:27:27;;;;;;;10.03;6.08;;;9.90;99.90;;;;;;1969550;72;21167;-80
2021/11/01 01:29:53;;;;;;;12.45;6.10;;;9.90;99.90;;;;;;1978159;72;21111;-80
2021/11/01 01:32:19;;;;;;;12.00;6.53;;;10.00;99.90;;;;;;1988545;72;21116;-80
2021/11/01 01:34:45;;;;;;;9.63;6.00;;;10.10;99.90;;;;;;1977117;72;21036;-81
2021/11/01 01:37:12;;;;;;;10.32;6.05;;;10.00;99.90;;;;;;1974089;72;21071;-80
2021/11/01 01:39:38;;;;;;;9.83;6.30;;;10.00;99.90;;;;;;1967050;72;21071;-80
2021/11/01 01:42:04;;;;;;;12.05;5.90;;;10.00;99.90;;;;;;1977189;72;21136;-79
2021/11/01 01:44:30;;;;;;;6.08;5.22;;;10.00;99.90;;;;;;1976034;72;21029;-80
2021/11/01 01:46:58;;;;;;;8.78;6.22;;;10.10;99.90;;;;;;1963670;71;21160;-80
2021/11/01 01:49:24;;;;;;;6.60;5.30;;;10.10;99.90;;;;;;1972037;72;21161;-80
2021/11/01 01:51:50;;;;;;;7.30;5.72;;;10.00;99.90;;;;;;1967540;72;21106;-80
2021/11/01 01:54:16;;;;;;;10.70;5.28;;;10.00;99.90;;;;;;1967981;72;21135;-81
2021/11/01 01:56:42;;;;;;;11.73;6.08;;;10.00;99.90;;;;;;1972037;72;21141;-81
2021/11/01 01:59:09;;;;;;;13.48;6.35;;;10.10;99.90;;;;;;1973675;72;21491;-80
2021/11/01 02:01:36;;;;;;;7.10;5.75;;;10.10;99.90;;;;;;1973759;72;21125;-81
2021/11/01 02:04:02;;;;;;;8.00;6.05;;;10.10;99.90;;;;;;1969934;72;21195;-80
2021/11/01 02:06:28;;;;;;;7.95;5.65;;;10.20;99.90;;;;;;1973717;73;21133;-80
2021/11/01 02:08:54;;;;;;;7.87;5.90;;;10.30;99.90;;;;;;1973754;72;21091;-80
2021/11/01 02:11:22;;;;;;;10.55;5.60;;;10.40;99.90;;;;;;1982203;72;21449;-79
2021/11/01 02:13:48;;;;;;;10.85;5.20;;;10.30;99.90;;;;;;1967411;72;21183;-81
2021/11/01 02:16:15;;;;;;;10.40;6.17;;;10.30;99.90;;;;;;1969375;72;21066;-81
2021/11/01 02:18:41;;;;;;;6.37;5.20;;;10.30;99.90;;;;;;1977777;72;21486;-80
2021/11/01 02:21:07;;;;;;;8.58;5.72;;;10.40;99.90;;;;;;1977233;72;21222;-79
2021/11/01 02:23:35;;;;;;;7.80;5.45;;;10.50;99.90;;;;;;1973669;72;21048;-81
2021/11/01 02:26:01;;;;;;;6.83;3.92;;;10.50;99.90;;;;;;1976835;72;21125;-81
2021/11/01 02:28:27;;;;;;;3.42;2.58;;;10.80;99.90;;;;;;1972453;72;21194;-80
2021/11/01 02:30:53;;;;;;;8.90;3.20;;;11.20;99.90;;;;;;1973949;72;21221;-81
2021/11/01 02:33:19;;;;;;;3.55;1.60;;;11.50;99.90;;;;;;1972757;72;21547;-80
2021/11/01 02:35:46;;;;;;;6.15;2.22;;;11.80;99.90;;;;;;1971300;72;21471;-81
2021/11/01 02:38:12;;;;;;;1.98;1.70;;;12.30;99.90;;;;;;1980676;72;21556;-80
2021/11/01 02:40:38;;;;;;;4.85;2.75;;;12.40;99.90;;;;;;1972706;72;21506;-80
2021/11/01 02:43:04;;;;;;;3.30;1.92;;;12.50;99.90;;;;;;1967623;72;21129;-80
2021/11/01 02:45:30;;;;;;;3.45;1.75;;;12.40;99.90;;;;;;1972825;72;21132;-80
2021/11/01 02:47:57;;;;;;;3.02;1.82;;;12.40;99.90;;;;;;1963251;72;21106;-78
2021/11/01 02:50:23;;;;;;;2.72;1.37;;;12.30;99.90;;;;;;1979006;72;21097;-79
2021/11/01 02:52:49;;;;;;;5.10;1.62;;;12.30;99.90;;;;;;1966664;72;21456;-78
2021/11/01 02:55:15;;;;;;;4.70;1.62;;;12.30;99.90;;;;;;1968426;72;21436;-78
2021/11/01 02:57:44;;;;;;;6.65;1.70;;;12.20;99.90;;;;;;1977618;72;21040;-79
2021/11/01 03:00:10;;;;;;;5.83;1.27;;;12.10;99.90;;;;;;1969975;72;21134;-77
2021/11/01 03:02:37;;;;;;;3.22;1.02;;;12.00;99.90;;;;;;1979942;72;21168;-79
2021/11/01 03:05:03;;;;;;;2.95;1.00;;;11.90;99.90;;;;;;1973674;73;21141;-79
2021/11/01 03:07:29;;;;;;;2.22;0.70;;;11.90;99.90;;;;;;1973557;72;21059;-79
2021/11/01 03:09:56;;;;;;;1.80;0.80;;;11.90;99.90;;;;;;1971017;72;21137;-79
2021/11/01 03:12:24;;;;;;;1.47;0.80;;;11.90;99.90;;;;;;1968483;71;21057;-79
2021/11/01 03:14:50;;;;;;;4.85;0.60;;;11.90;99.90;;;;;;1969997;72;21212;-79
2021/11/01 03:17:18;;;;;;;2.17;0.90;;;11.80;99.90;;;;;;1980051;72;21102;-79
2021/11/01 03:19:44;;;;;;;3.55;0.70;;;11.80;99.90;;;;;;1969243;72;21131;-79
2021/11/01 03:22:11;;;;;;;2.98;0.70;;;11.70;99.90;;;;;;1975667;72;21147;-80
2021/11/01 03:24:37;;;;;;;2.62;0.60;;;11.70;99.90;;;;;;1977695;72;21098;-80
2021/11/01 03:27:03;;;;;;;3.12;0.65;;;11.60;99.90;;;;;;1973560;73;21073;-80
2021/11/01 03:29:29;;;;;;;7.83;1.27;;;11.60;99.90;;;;;;1976419;72;21050;-80
2021/11/01 03:31:55;;;;;;;4.37;0.82;;;11.60;99.90;;;;;;1976353;72;21153;-79
2021/11/01 03:34:22;;;;;;;5.33;0.72;;;11.50;99.90;;;;;;1979127;72;21058;-80
2021/11/01 03:36:48;;;;;;;1.80;0.68;;;11.50;99.90;;;;;;1963261;72;21095;-78
2021/11/01 03:39:15;;;;;;;2.17;0.60;;;11.40;99.90;;;;;;1973606;72;21152;-78
2021/11/01 03:41:41;;;;;;;1.85;0.80;;;11.30;99.90;;;;;;1969974;72;21058;-77
2021/11/01 03:44:14;;;;;;;3.67;0.80;;;11.10;99.90;;;;;;1974879;72;21090;-78
2021/11/01 03:49:19;;;;;;;6.87;0.82;;;11.10;99.90;;;;;;1973411;72;21056;-77
2021/11/01 03:51:51;;;;;;;5.92;1.12;;;11.00;99.90;;;;;;1970411;72;21141;-76
2021/11/01 03:54:13;;;;;;;3.12;0.90;;;10.90;99.90;;;;;;1971880;72;21162;-76
2021/11/01 03:56:39;;;;;;;4.80;0.90;;;10.90;99.90;;;;;;1965634;71;21023;-76
2021/11/01 03:59:05;;;;;;;3.20;0.85;;;10.80;99.90;;;;;;1971147;72;21071;-76
2021/11/01 04:01:32;;;;;;;3.87;0.80;;;10.80;99.90;;;;;;1970285;72;21063;-76
2021/11/01 04:03:59;;;;;;;2.62;0.85;;;10.70;99.90;;;;;;1970368;72;21097;-76
2021/11/01 04:06:25;;;;;;;4.30;1.35;;;10.70;99.90;;;;;;1971636;72;21040;-76
2021/11/01 04:08:52;;;;;;;6.55;0.80;;;10.70;99.90;;;;;;1975424;72;21058;-76
2021/11/01 04:11:18;;;;;;;5.70;1.12;;;10.70;99.90;;;;;;1973827;72;21471;-76
2021/11/01 04:13:44;;;;;;;5.03;1.12;;;10.70;99.90;;;;;;1978959;72;21078;-76
2021/11/01 04:16:13;;;;;;;3.67;1.10;;;10.70;99.90;;;;;;1970745;72;21125;-76
2021/11/01 04:21:24;;;;;;;3.17;0.78;;;10.50;99.90;;;;;;1970152;72;21052;-77
2021/11/01 04:23:50;;;;;;;5.33;1.12;;;10.50;99.90;;;;;;1973555;72;21154;-76
2021/11/01 04:26:19;;;;;;;3.83;1.12;;;10.50;99.90;;;;;;1970571;72;21067;-76
2021/11/01 04:28:44;;;;;;;4.97;1.10;;;10.70;99.90;;;;;;1973709;72;21080;-77
2021/11/01 04:31:20;;;;;;;2.85;0.90;;;10.70;99.90;;;;;;1970210;72;21035;-77
2021/11/01 04:33:40;;;;;;;3.87;0.65;;;10.60;99.90;;;;;;1965395;72;21582;-76
2021/11/01 04:36:06;;;;;;;5.97;1.00;;;10.50;99.90;;;;;;1976934;72;21129;-76
2021/11/01 04:39:30;;;;;;;3.12;0.90;;;10.50;99.90;;;;;;1973859;72;21136;-76
2021/11/01 04:41:07;;;;;;;4.72;1.00;;;10.50;99.90;;;;;;1946968;72;21067;-76
2021/11/01 04:53:52;;;;;;;4.78;1.00;;;10.60;99.90;;;;;;1913135;72;21432;-77
2021/11/01 04:56:19;;;;;;;2.65;0.98;;;10.40;99.90;;;;;;1973805;73;21155;-77
2021/11/01 04:58:46;;;;;;;3.15;0.72;;;10.40;99.90;;;;;;1971603;72;21055;-76
2021/11/01 05:01:14;;;;;;;1.85;0.72;;;10.50;99.90;;;;;;1969557;72;21557;-76
2021/11/01 05:03:42;;;;;;;4.60;1.07;;;10.50;99.90;;;;;;1979586;72;21156;-76
2021/11/01 05:06:09;;;;;;;2.83;0.82;;;10.50;99.90;;;;;;1971808;72;21071;-77
2021/11/01 05:08:46;;;;;;;5.25;1.02;;;10.50;99.90;;;;;;1975219;72;21061;-78
2021/11/01 05:11:14;;;;;;;2.77;0.98;;;10.60;99.90;;;;;;1966156;72;21464;-77
2021/11/01 05:13:36;;;;;;;0.88;0.60;;;10.50;99.90;;;;;;1979699;72;21103;-77
2021/11/01 05:23:41;;;;;;;3.62;1.30;;;10.50;99.90;;;;;;1973712;72;21135;-75
2021/11/01 05:28:47;;;;;;;2.25;0.80;;;10.60;99.90;;;;;;1927556;72;21471;-77
2021/11/01 05:31:24;;;;;;;3.80;1.57;;;10.50;99.90;;;;;;1973637;72;21189;-77
2021/11/01 05:34:01;;;;;;;9.20;1.65;;;10.40;99.90;;;;;;1967663;72;21775;-77
2021/11/01 05:36:23;;;;;;;2.90;1.25;;;10.50;99.90;;;;;;1973147;72;21087;-77
2021/11/01 05:38:49;;;;;;;4.67;1.52;;;10.50;99.90;;;;;;1973872;72;21206;-76
2021/11/01 05:41:16;;;;;;;3.00;1.47;;;10.50;99.90;;;;;;1973737;72;21068;-77
2021/11/01 05:43:42;;;;;;;3.08;1.12;;;10.60;99.90;;;;;;1973756;72;21071;-76
2021/11/01 05:46:09;;;;;;;1.52;0.78;;;10.60;99.90;;;;;;1966755;72;21221;-76
2021/11/01 05:48:36;;;;;;;4.08;1.50;;;10.60;99.90;;;;;;1981484;72;21070;-77
2021/11/01 05:51:03;;;;;;;5.12;1.40;;;10.60;99.90;;;;;;1984422;72;21071;-77
2021/11/01 05:53:34;;;;;;;3.72;1.05;;;10.50;99.90;;;;;;1976058;72;21553;-77
2021/11/01 05:56:11;;;;;;;3.83;1.17;;;10.50;99.90;;;;;;1973039;72;21430;-77
2021/11/01 05:58:39;;;;;;;5.35;1.52;;;10.30;99.90;;;;;;1971299;72;21104;-76
2021/11/01 06:14:35;;;;;;;4.47;1.40;;;10.30;99.90;;;;;;1968826;72;21153;-78
2021/11/01 06:17:02;;;;;;;3.22;1.00;;;10.30;99.90;;;;;;1971448;72;21068;-78
2021/11/01 06:19:28;;;;;;;5.95;1.47;;;10.30;99.90;;;;;;1973930;73;21103;-77
2021/11/01 06:21:54;;;;;;;3.00;1.52;;;10.30;99.90;;;;;;1973967;73;21105;-77
2021/11/01 06:24:47;;;;;;;3.22;1.27;;;10.40;99.90;;;;;;1973265;72;21175;-78
2021/11/01 06:27:03;;;;;;;3.42;1.10;;;10.40;99.90;;;;;;1968592;72;21605;-77
2021/11/01 06:29:34;;;;;;;3.00;1.50;;;10.40;99.90;;;;;;1977238;72;21043;-78
2021/11/01 06:32:15;;;;;;;7.45;1.50;;;10.40;99.90;;;;;;1973912;72;21119;-78
2021/11/01 06:39:12;;;;;;;2.80;1.40;;;10.40;99.90;;;;;;1973175;72;21505;-78
2021/11/01 06:39:52;;;;;;;4.42;1.65;;;10.40;99.90;;;;;;1921798;72;21043;-77
2021/11/01 06:42:20;;;;;;;;;;;10.40;99.90;;;;;;1975381;72;21069;-79
2021/11/01 06:44:57;;;;;;;3.50;1.90;;;10.40;99.90;;;;;;1972143;72;20422;-84
2021/11/01 06:50:11;;;;;;;5.53;2.12;;;10.40;99.90;;;;;;1971821;72;21050;-77
2021/11/01 06:53:13;;;;;;;2.27;1.67;;;10.30;99.90;;;;;;1973083;72;21173;-77
2021/11/01 07:16:49;;;;;;;2.35;0.95;;;10.50;99.90;;;;;;1973738;72;21080;-82
2021/11/01 07:19:25;;;;;;;2.35;0.95;;;10.50;99.90;;;;;;1980192;72;21048;-82
2021/11/01 07:21:57;;;;;;;1.25;0.68;;;10.50;99.90;;;;;;1972664;72;21089;-82
2021/11/01 08:40:43;;;;;;;2.10;0.60;;;10.30;99.90;;;;;;1970968;72;21172;-73
2021/11/01 08:48:32;;;;;;;5.45;0.70;;;10.40;99.90;;;;;;1974012;72;21077;-72
2021/11/01 08:51:17;;;;;;;3.47;0.88;;;10.40;99.90;;;;;;1968740;72;21095;-71
2021/11/01 09:04:48;;;;;;;2.10;0.60;;;10.40;99.90;;;;;;1970765;72;21138;-73
2021/11/01 09:10:19;;;;;;;1.60;0.70;;;10.40;99.90;;;;;;1975445;72;21081;-72
2021/11/01 09:21:12;;;;;;;1.15;0.80;;;10.60;99.90;;;;;;1980154;72;21068;-73
2021/11/01 09:28:38;;;;;;;2.42;1.05;;;10.60;99.90;;;;;;1969460;72;21047;-73
2021/11/01 09:36:47;;;;;;;0.40;0.40;;;10.60;99.90;;;;;;1970487;72;21073;-76
2021/11/01 09:41:48;;;;;;;0.75;0.40;;;10.70;99.90;;;;;;1916325;72;21081;-77
2021/11/01 09:44:20;;;;;;;3.60;0.80;;;10.80;99.90;;;;;;1978235;72;21061;-78
2021/11/01 09:46:42;;;;;;;1.07;0.60;;;10.90;99.90;;;;;;1973473;72;21211;-78
2021/11/01 09:49:14;;;;;;;1.85;0.60;;;11.00;99.90;;;;;;1964667;72;21101;-78
2021/11/01 09:51:41;;;;;;;1.45;0.50;;;11.00;99.90;;;;;;1973580;72;21071;-77
2021/11/01 09:54:10;;;;;;;6.47;0.90;;;10.90;99.90;;;;;;1974505;73;21088;-78
2021/11/01 09:56:44;;;;;;;2.47;0.80;;;10.80;99.90;;;;;;1978635;72;21483;-79
2021/11/01 09:59:11;;;;;;;0.55;0.50;;;10.90;99.90;;;;;;1970760;72;21148;-79
2021/11/01 10:01:37;;;;;;;5.05;1.27;;;11.10;99.90;;;;;;1973728;72;21079;-79
2021/11/01 10:04:04;;;;;;;1.65;0.90;;;11.10;99.90;;;;;;1970444;72;21067;-75
2021/11/01 10:06:33;;;;;;;1.50;0.88;;;11.10;99.90;;;;;;1974081;72;21051;-87
2021/11/01 10:08:58;;;;;;;2.65;1.07;;;10.90;99.90;;;;;;1968590;72;21603;-87
2021/11/01 10:11:24;;;;;;;4.22;0.85;;;11.00;99.90;;;;;;1974304;72;21051;-81
2021/11/01 10:13:50;;;;;;;4.10;1.00;;;11.00;99.90;;;;;;1970850;72;21058;-80
2021/11/01 10:19:01;;;;;;;2.22;1.60;;;10.90;99.90;;;;;;1982904;72;21059;-77
2021/11/01 10:21:27;;;;;;;1.35;1.05;;;10.90;99.90;;;;;;1970619;72;21499;-75
2021/11/01 10:23:58;;;;;;;2.12;1.02;;;11.00;99.90;;;;;;1974052;73;21504;-77
2021/11/01 10:26:21;;;;;;;2.10;1.30;;;11.10;99.90;;;;;;1972639;72;21143;-77
2021/11/01 10:28:47;;;;;;;4.92;1.10;;;11.10;99.90;;;;;;1979635;72;21058;-79
2021/11/01 10:31:13;;;;;;;1.77;0.88;;;11.10;99.90;;;;;;1970602;72;21142;-81
2021/11/01 10:33:44;;;;;;;2.50;1.20;;;11.10;99.90;;;;;;1970631;71;21066;-80
2021/11/01 10:36:07;;;;;;;13.78;2.37;;;11.00;99.90;;;;;;1974242;72;21092;-78
2021/11/01 10:38:39;;;;;;;1.82;1.32;;;11.00;99.90;;;;;;1970490;72;21086;-78
2021/11/01 10:41:23;;;;;;;2.77;1.00;;;11.10;99.90;;;;;;1973328;72;21101;-79
2021/11/01 10:44:09;;;;;;;6.55;1.17;;;11.00;99.90;;;;;;1977771;72;21035;-78
2021/11/01 11:13:10;;;;;;;4.17;1.32;;;11.20;99.90;;;;;;1974289;73;21020;-79
2021/11/01 11:15:35;;;;;;;3.47;1.42;;;11.20;99.90;;;;;;1973650;72;21503;-79
2021/11/01 11:18:12;;;;;;;1.82;1.45;;;11.20;99.90;;;;;;1973681;72;21133;-79
2021/11/01 11:26:01;;;;;;;1.60;1.50;;;11.30;99.90;;;;;;1928377;72;21512;-79
2021/11/01 11:31:00;;;;;;;2.98;1.95;;;11.30;99.90;;;;;;1924451;72;21460;-79
2021/11/01 11:39:04;;;;;;;3.52;1.70;;;11.40;99.90;;;;;;1964995;72;21055;-78
2021/11/01 11:43:55;;;;;;;2.95;1.77;;;11.20;99.90;;;;;;1911572;72;21160;-78
2021/11/01 11:49:01;;;;;;;2.70;1.92;;;11.20;99.90;;;;;;1980651;72;21096;-77
2021/11/01 11:51:28;;;;;;;11.53;3.17;;;11.30;99.90;;;;;;1964169;72;21282;-77
2021/11/01 11:54:00;;;;;;;5.10;2.27;;;11.30;99.90;;;;;;1968798;72;21120;-79
2021/11/01 11:56:26;;;;;;;8.08;2.35;;;11.20;99.90;;;;;;1963133;72;21126;-79
2021/11/01 11:58:52;;;;;;;5.70;2.80;;;11.20;99.90;;;;;;1972930;72;21126;-79
2021/11/01 12:01:23;;;;;;;12.73;3.05;;;11.30;99.90;;;;;;1969239;72;21118;-80
2021/11/01 12:03:48;;;;;;;6.40;1.92;;;11.20;99.90;;;;;;1974577;72;21088;-78
2021/11/01 12:06:22;;;;;;;3.85;2.17;;;11.10;99.90;;;;;;1959995;71;21111;-80
2021/11/01 12:08:49;;;;;;;;;;;11.10;99.90;;;;;;1976001;72;21098;-80
2021/11/01 12:11:29;;;;;;;;;;;;;;;;;;;;;
2021/11/01 12:19:05;;;;;;;5.75;3.10;;;11.50;99.90;;;;;;1969372;72;21116;-80
2021/11/01 12:24:02;;;;;;;5.28;3.12;;;11.40;99.90;;;;;;1890506;75;21172;-80
2021/11/01 12:29:10;;;;;;;13.22;3.92;;;11.30;99.90;;;;;;1868526;76;21085;-80
2021/11/01 12:31:24;;;;;;;6.92;3.52;;;11.20;99.90;;;;;;1888559;75;21159;-79
2021/11/01 12:34:13;;;;;;;8.78;2.12;;;11.30;99.90;;;;;;1890529;74;21149;-80
2021/11/01 12:36:52;;;;;;;8.55;3.33;;;11.30;99.90;;;;;;1965878;72;21336;-80
2021/11/01 12:39:21;;;;;;;7.70;2.60;;;11.30;99.90;;;;;;1974741;72;21080;-79
2021/11/01 12:42:37;;;;;;;6.55;2.52;;;11.20;99.90;;;;;;1974712;72;21093;-80
2021/11/01 12:57:48;;;;;;;6.70;4.90;;;11.40;99.90;;;;;;1907134;72;21462;-79
2021/11/01 13:00:22;;;;;;;11.18;4.95;;;11.40;99.90;;;;;;1967409;72;21091;-81
2021/11/01 13:02:37;;;;;;;7.10;4.47;;;11.40;99.90;;;;;;1973097;72;21074;-80
2021/11/01 13:05:04;;;;;;;8.03;4.05;;;11.40;99.90;;;;;;1966944;72;21727;-78
2021/11/01 13:07:43;;;;;;;5.35;3.25;;;11.40;99.90;;;;;;1975853;71;21096;-79
2021/11/01 13:18:13;;;;;;;5.20;3.05;;;11.30;99.90;;;;;;1965534;72;21258;-77
2021/11/01 13:20:58;;;;;;;3.62;2.12;;;11.40;99.90;;;;;;1964083;72;21573;-78
2021/11/01 13:23:17;;;;;;;6.05;2.42;;;11.40;99.90;;;;;;1945454;72;21101;-78
2021/11/01 13:36:32;;;;;;;7.05;4.25;;;11.40;99.90;;;;;;1972386;73;21084;-80
2021/11/01 13:38:38;;;;;;;9.68;3.87;;;11.40;99.90;;;;;;1960542;72;21088;-80
2021/11/01 13:41:04;;;;;;;6.33;3.52;;;11.30;99.90;;;;;;1960870;72;21055;-80
2021/11/01 13:43:32;;;;;;;5.67;2.70;;;11.40;99.90;;;;;;1959159;72;21037;-80
2021/11/01 13:45:59;;;;;;;5.42;2.50;;;11.30;99.90;;;;;;1953170;72;21482;-80
2021/11/01 13:48:26;;;;;;;4.22;2.83;;;11.30;99.90;;;;;;1951951;72;21510;-78
2021/11/01 13:50:52;;;;;;;4.25;2.90;;;11.30;99.90;;;;;;1969334;73;21059;-80
2021/11/01 13:53:21;;;;;;;8.53;3.27;;;11.20;99.90;;;;;;1971967;72;21055;-80
2021/11/01 13:55:48;;;;;;;4.67;2.50;;;11.20;99.90;;;;;;1960829;72;21108;-79
2021/11/01 14:01:26;;;;;;;3.40;2.90;;;11.30;99.90;;;;;;1962883;72;21047;-79
2021/11/01 14:10:51;;;;;;;6.25;3.00;;;11.30;99.90;;;;;;1967652;72;21516;-82
2021/11/01 14:11:42;;;;;;;2.95;2.75;;;11.50;99.90;;;;;;1962572;72;21050;-90
2021/11/01 14:55:44;;;;;;;5.67;2.37;;;11.60;99.90;;;;;;1967384;72;21119;-82
2021/11/01 15:11:18;;;;;;;2.87;1.80;;;11.30;99.90;;;;;;1963414;72;21394;-82
2021/11/01 15:16:09;;;;;;;7.78;2.85;;;11.50;99.90;;;;;;1968292;72;21209;-83
2021/11/01 15:18:39;;;;;;;3.83;2.30;;;11.60;99.90;;;;;;1958497;72;22463;-82
2021/11/01 15:21:28;;;;;;;4.10;2.75;;;11.60;99.90;;;;;;1965516;72;21158;-81
2021/11/01 15:28:37;;;;;;;7.50;2.37;;;12.00;99.90;;;;;;1952146;72;21568;-83
2021/11/01 15:33:49;;;;;;;4.17;2.52;;;11.90;99.90;;;;;;1962841;71;21088;-82
2021/11/01 15:38:55;;;;;;;4.25;2.70;;;11.80;99.90;;;;;;1962649;71;21100;-82
2021/11/01 15:41:59;;;;;;;4.78;2.35;;;11.80;99.90;;;;;;1964855;72;21165;-83
2021/11/01 16:17:17;;;;;;;7.50;3.08;;;10.90;99.90;;;;;;1962951;72;21165;-83
2021/11/01 16:19:38;;;;;;;5.30;3.00;;;10.80;99.90;;;;;;1950388;72;21230;-84
2021/11/01 16:21:57;;;;;;;2.85;2.52;;;10.70;99.90;;;;;;1943489;72;21086;-83
2021/11/01 16:24:23;;;;;;;3.42;2.30;;;10.70;99.90;;;;;;1949997;72;21042;-86
2021/11/01 16:26:49;;;;;;;3.62;2.60;;;10.60;99.90;;;;;;1946644;72;21103;-86
2021/11/01 16:29:19;;;;;;;4.05;2.67;;;10.50;99.90;;;;;;1954440;72;21153;-86
2021/11/01 16:31:46;;;;;;;5.30;2.85;;;10.40;99.90;;;;;;1964989;72;21142;-87
2021/11/01 16:34:17;;;;;;;5.83;3.33;;;10.40;99.90;;;;;;1964965;72;21154;-88
2021/11/01 16:39:12;;;;;;;4.20;2.67;;;10.40;99.90;;;;;;1968244;72;21062;-84
2021/11/01 16:41:39;;;;;;;4.90;2.33;;;10.30;99.90;;;;;;1946111;72;21035;-86
2021/11/01 16:46:50;;;;;;;5.25;2.65;;;10.20;99.90;;;;;;1961316;72;21523;-78
2021/11/01 16:49:16;;;;;;;3.58;2.72;;;10.10;99.90;;;;;;1967001;72;21464;-85
2021/11/01 16:51:46;;;;;;;6.17;2.98;;;10.20;99.90;;;;;;1968381;72;21197;-87
2021/11/01 16:54:13;;;;;;;5.80;3.00;;;10.10;99.90;;;;;;1946983;72;21169;-87
2021/11/01 16:56:47;;;;;;;4.30;2.95;;;10.20;99.90;;;;;;1953300;72;21476;-81
2021/11/01 16:59:15;;;;;;;3.65;2.67;;;10.20;99.90;;;;;;1938569;72;21185;-89
2021/11/01 17:01:38;;;;;;;6.42;3.33;;;10.20;99.90;;;;;;1943964;72;21168;-88
2021/11/01 17:04:08;;;;;;;7.08;3.27;;;10.20;99.90;;;;;;1948776;72;21094;-90
2021/11/01 17:06:40;;;;;;;5.53;2.85;;;10.20;99.90;;;;;;1971786;72;21059;-91
2021/11/01 17:22:47;;;;;;;5.25;2.70;;;9.80;99.90;;;;;;1934952;72;21052;-86
2021/11/01 17:25:18;;;;;;;;;;;9.70;99.90;;;;;;1973770;72;21088;-90
2021/11/01 17:27:57;;;;;;;6.55;2.80;;;9.70;99.90;;;;;;1970386;72;20310;-90
2021/11/01 17:35:48;;;;;;;6.10;2.85;;;9.60;99.90;;;;;;1957636;72;21050;-89
2021/11/01 18:51:45;;;;;;;8.03;4.17;;;9.50;99.90;;;;;;1951398;72;21039;-79
2021/11/01 18:54:16;;;;;;;6.90;4.20;;;9.40;99.90;;;;;;1969646;72;21059;-80
2021/11/01 18:56:39;;;;;;;6.78;4.30;;;9.40;99.90;;;;;;1964990;72;21059;-80
2021/11/01 18:59:05;;;;;;;6.33;3.95;;;9.40;99.90;;;;;;1958053;72;21059;-81
2021/11/01 19:01:31;;;;;;;6.08;3.77;;;9.40;99.90;;;;;;1973322;72;21105;-81
2021/11/01 19:03:57;;;;;;;4.35;3.83;;;9.30;99.90;;;;;;1966326;72;21050;-80
2021/11/01 19:06:40;;;;;;;5.92;3.75;;;9.30;99.90;;;;;;1974261;72;21223;-76
2021/11/01 20:06:53;;;;;;;4.53;2.77;;;8.00;99.90;;;;;;1958962;72;21067;-81
2021/11/01 21:27:48;;;;;;;6.03;3.60;;;7.30;99.90;;;;;;1965496;72;21106;-79
2021/11/01 21:30:14;;;;;;;5.37;3.20;;;7.40;99.90;;;;;;1971432;73;21055;-80
2021/11/01 21:32:41;;;;;;;4.40;3.47;;;7.40;99.90;;;;;;1960801;72;21070;-80
2021/11/01 21:35:13;;;;;;;7.75;3.80;;;7.30;99.90;;;;;;1968866;72;21128;-81
2021/11/01 21:37:35;;;;;;;5.20;3.58;;;7.20;99.90;;;;;;1969698;72;21601;-82
2021/11/01 21:40:02;;;;;;;5.95;3.33;;;7.30;99.90;;;;;;1954698;72;21055;-81
2021/11/01 21:42:28;;;;;;;4.17;3.10;;;7.20;99.90;;;;;;1956428;72;21478;-80
2021/11/01 21:44:54;;;;;;;8.00;3.85;;;7.20;99.90;;;;;;1972201;72;21429;-80
2021/11/01 21:47:20;;;;;;;4.70;3.30;;;7.20;99.90;;;;;;1960538;72;21528;-80
2021/11/01 21:49:46;;;;;;;3.75;3.45;;;7.20;99.90;;;;;;1975763;72;21540;-80
2021/11/01 21:52:14;;;;;;;7.47;3.25;;;7.20;99.90;;;;;;1970421;73;21220;-81
2021/11/01 21:54:48;;;;;;;8.65;3.58;;;7.10;99.90;;;;;;1973316;72;21073;-81
2021/11/01 22:16:38;;;;;;;7.92;3.72;;;6.80;99.90;;;;;;1955230;72;21127;-79
2021/11/01 22:18:36;;;;;;;5.62;4.08;;;6.60;99.90;;;;;;1958819;72;21542;-76
2021/11/01 22:21:05;;;;;;;7.58;3.90;;;6.60;99.90;;;;;;1971222;73;21067;-76
2021/11/01 22:26:09;;;;;;;7.78;3.95;;;6.50;99.90;;;;;;1971929;72;21063;-75
2021/11/01 22:39:36;;;;;;;14.90;3.87;;;6.20;99.90;;;;;;1954736;72;21520;-76
2021/11/01 22:44:39;;;;;;;10.18;4.40;;;6.20;99.90;;;;;;1950842;72;21489;-76
2021/11/01 22:47:01;;;;;;;5.00;3.50;;;6.10;99.90;;;;;;1959047;72;21284;-78
2021/11/01 22:57:30;;;;;;;7.40;4.00;;;6.30;99.90;;;;;;1966140;72;21060;-76
2021/11/01 22:59:56;;;;;;;5.97;4.58;;;6.20;99.90;;;;;;1946921;72;21121;-78
2021/11/01 23:02:23;;;;;;;8.48;5.12;;;6.30;99.90;;;;;;1971317;72;21064;-78
2021/11/01 23:04:53;;;;;;;7.67;5.28;;;6.40;99.90;;;;;;1952211;72;21523;-78
2021/11/01 23:31:55;;;;;;;6.95;4.80;;;6.60;99.90;;;;;;1945357;72;21084;-77
2021/11/01 23:34:21;;;;;;;6.47;4.70;;;6.60;99.90;;;;;;1966351;72;21475;-77
2021/11/01 23:36:47;;;;;;;6.70;5.00;;;6.70;99.90;;;;;;1970759;72;21480;-77
2021/11/01 23:39:13;;;;;;;8.80;4.97;;;6.70;99.90;;;;;;1964358;72;21568;-77
2021/11/01 23:41:40;;;;;;;10.32;5.12;;;6.70;99.90;;;;;;1960822;72;21455;-76
2021/11/01 23:44:06;;;;;;;6.72;4.40;;;6.70;99.90;;;;;;1950471;72;21087;-76
2021/11/01 23:46:32;;;;;;;9.58;5.25;;;6.80;99.90;;;;;;1974535;72;21186;-77
2021/11/01 23:48:58;;;;;;;9.23;4.83;;;6.80;99.90;;;;;;1973814;72;21483;-76
2021/11/01 23:51:31;;;;;;;9.60;5.55;;;6.70;99.90;;;;;;1966715;72;21443;-77
2021/11/01 23:56:42;;;;;;;12.90;5.90;;;6.70;99.90;;;;;;1963168;72;21090;-78
2021/11/01 23:59:08;;;;;;;6.12;4.62;;;6.80;99.90;;;;;;1959552;72;21066;-77
